sensor_id;sensor_type;location;lat;lon;timestamp;temperature;humidity
61092;DHT22;46975;51.898;11.444;2022-10-22T00:00:56;13.60;99.90
61092;DHT22;46975;51.898;11.444;2022-10-22T00:03:22;13.50;99.90
61092;DHT22;46975;51.898;11.444;2022-10-22T00:05:47;13.40;99.90
61092;DHT22;46975;51.898;11.444;2022-10-22T00:08:13;13.40;99.90
61092;DHT22;46975;51.898;11.444;2022-10-22T00:10:39;13.40;99.90
61092;DHT22;46975;51.898;11.444;2022-10-22T00:13:05;13.50;99.90
61092;DHT22;46975;51.898;11.444;2022-10-22T00:15:31;13.40;99.90
61092;DHT22;46975;51.898;11.444;2022-10-22T00:17:57;13.40;99.90
61092;DHT22;46975;51.898;11.444;2022-10-22T00:20:22;13.50;99.90
61092;DHT22;46975;51.898;11.444;2022-10-22T00:22:48;13.60;99.90
61092;DHT22;46975;51.898;11.444;2022-10-22T00:25:14;13.50;99.90
61092;DHT22;46975;51.898;11.444;2022-10-22T00:27:40;13.50;99.90
61092;DHT22;46975;51.898;11.444;2022-10-22T00:30:06;13.60;99.90
61092;DHT22;46975;51.898;11.444;2022-10-22T00:32:32;13.50;99.90
61092;DHT22;46975;51.898;11.444;2022-10-22T00:34:58;13.40;99.90
61092;DHT22;46975;51.898;11.444;2022-10-22T00:37:23;13.30;99.90
61092;DHT22;46975;51.898;11.444;2022-10-22T00:39:49;13.30;99.90
61092;DHT22;46975;51.898;11.444;2022-10-22T00:42:21;13.20;99.90
61092;DHT22;46975;51.898;11.444;2022-10-22T00:50:01;13.10;99.90
61092;DHT22;46975;51.898;11.444;2022-10-22T00:52:28;13.00;99.90
61092;DHT22;46975;51.898;11.444;2022-10-22T00:54:53;12.90;99.90
61092;DHT22;46975;51.898;11.444;2022-10-22T00:57:20;12.90;99.90
61092;DHT22;46975;51.898;11.444;2022-10-22T00:59:46;12.80;99.90
61092;DHT22;46975;51.898;11.444;2022-10-22T01:02:12;12.80;99.90
61092;DHT22;46975;51.898;11.444;2022-10-22T01:04:38;12.80;99.90
61092;DHT22;46975;51.898;11.444;2022-10-22T01:07:04;12.80;99.90
61092;DHT22;46975;51.898;11.444;2022-10-22T01:09:41;12.80;99.90
61092;DHT22;46975;51.898;11.444;2022-10-22T01:15:49;12.80;99.90
61092;DHT22;46975;51.898;11.444;2022-10-22T01:18:34;12.70;99.90
61092;DHT22;46975;51.898;11.444;2022-10-22T01:31:42;12.70;99.90
61092;DHT22;46975;51.898;11.444;2022-10-22T01:34:12;12.70;99.90
61092;DHT22;46975;51.898;11.444;2022-10-22T01:36:40;12.70;99.90
61092;DHT22;46975;51.898;11.444;2022-10-22T01:39:07;12.90;99.90
61092;DHT22;46975;51.898;11.444;2022-10-22T01:41:33;13.00;99.90
61092;DHT22;46975;51.898;11.444;2022-10-22T01:43:59;13.00;99.90
61092;DHT22;46975;51.898;11.444;2022-10-22T01:46:27;13.00;99.90
61092;DHT22;46975;51.898;11.444;2022-10-22T01:49:14;12.90;99.90
61092;DHT22;46975;51.898;11.444;2022-10-22T01:54:45;12.90;99.90
61092;DHT22;46975;51.898;11.444;2022-10-22T01:57:58;12.90;99.90
61092;DHT22;46975;51.898;11.444;2022-10-22T02:00:13;12.90;99.90
61092;DHT22;46975;51.898;11.444;2022-10-22T02:05:11;13.40;99.90
61092;DHT22;46975;51.898;11.444;2022-10-22T02:07:43;13.60;99.90
61092;DHT22;46975;51.898;11.444;2022-10-22T02:10:11;13.80;99.90
61092;DHT22;46975;51.898;11.444;2022-10-22T02:12:39;13.80;99.90
61092;DHT22;46975;51.898;11.444;2022-10-22T02:15:07;13.90;99.90
61092;DHT22;46975;51.898;11.444;2022-10-22T02:17:34;13.90;99.90
61092;DHT22;46975;51.898;11.444;2022-10-22T02:20:22;14.00;99.90
61092;DHT22;46975;51.898;11.444;2022-10-22T02:22:50;13.90;99.90
61092;DHT22;46975;51.898;11.444;2022-10-22T02:25:15;13.70;99.90
61092;DHT22;46975;51.898;11.444;2022-10-22T02:27:57;13.70;99.90
61092;DHT22;46975;51.898;11.444;2022-10-22T02:30:25;13.60;99.90
61092;DHT22;46975;51.898;11.444;2022-10-22T02:35:22;13.70;99.90
61092;DHT22;46975;51.898;11.444;2022-10-22T02:37:49;13.80;99.90
61092;DHT22;46975;51.898;11.444;2022-10-22T02:40:16;13.80;99.90
61092;DHT22;46975;51.898;11.444;2022-10-22T02:42:42;13.80;99.90
61092;DHT22;46975;51.898;11.444;2022-10-22T02:45:09;13.80;99.90
61092;DHT22;46975;51.898;11.444;2022-10-22T02:47:34;13.70;99.90
61092;DHT22;46975;51.898;11.444;2022-10-22T02:50:00;13.70;99.90
61092;DHT22;46975;51.898;11.444;2022-10-22T02:52:26;13.80;99.90
61092;DHT22;46975;51.898;11.444;2022-10-22T02:54:51;13.80;99.90
61092;DHT22;46975;51.898;11.444;2022-10-22T02:57:17;14.00;99.90
61092;DHT22;46975;51.898;11.444;2022-10-22T02:59:43;14.00;99.90
61092;DHT22;46975;51.898;11.444;2022-10-22T03:02:08;13.80;99.90
61092;DHT22;46975;51.898;11.444;2022-10-22T03:04:34;13.60;99.90
61092;DHT22;46975;51.898;11.444;2022-10-22T03:06:59;13.50;99.90
61092;DHT22;46975;51.898;11.444;2022-10-22T03:09:25;13.40;99.90
61092;DHT22;46975;51.898;11.444;2022-10-22T03:11:51;13.40;99.90
61092;DHT22;46975;51.898;11.444;2022-10-22T03:14:16;13.40;99.90
61092;DHT22;46975;51.898;11.444;2022-10-22T03:16:42;13.40;99.90
61092;DHT22;46975;51.898;11.444;2022-10-22T03:19:08;13.30;99.90
61092;DHT22;46975;51.898;11.444;2022-10-22T03:21:37;13.30;99.90
61092;DHT22;46975;51.898;11.444;2022-10-22T03:24:10;13.30;99.90
61092;DHT22;46975;51.898;11.444;2022-10-22T03:26:39;13.30;99.90
61092;DHT22;46975;51.898;11.444;2022-10-22T03:29:05;13.30;99.90
61092;DHT22;46975;51.898;11.444;2022-10-22T03:31:31;13.30;99.90
61092;DHT22;46975;51.898;11.444;2022-10-22T03:33:57;13.30;99.90
61092;DHT22;46975;51.898;11.444;2022-10-22T03:36:22;13.30;99.90
61092;DHT22;46975;51.898;11.444;2022-10-22T03:38:48;13.40;99.90
61092;DHT22;46975;51.898;11.444;2022-10-22T03:41:14;13.40;99.90
61092;DHT22;46975;51.898;11.444;2022-10-22T03:43:40;13.60;99.90
61092;DHT22;46975;51.898;11.444;2022-10-22T03:46:06;13.60;99.90
61092;DHT22;46975;51.898;11.444;2022-10-22T03:48:32;13.60;99.90
61092;DHT22;46975;51.898;11.444;2022-10-22T03:50:57;13.60;99.90
61092;DHT22;46975;51.898;11.444;2022-10-22T03:53:23;13.50;99.90
61092;DHT22;46975;51.898;11.444;2022-10-22T03:55:49;13.50;99.90
61092;DHT22;46975;51.898;11.444;2022-10-22T03:58:14;13.40;99.90
61092;DHT22;46975;51.898;11.444;2022-10-22T04:00:40;13.40;99.90
61092;DHT22;46975;51.898;11.444;2022-10-22T04:03:06;13.40;99.90
61092;DHT22;46975;51.898;11.444;2022-10-22T04:05:32;13.40;99.90
61092;DHT22;46975;51.898;11.444;2022-10-22T04:07:58;13.50;99.90
61092;DHT22;46975;51.898;11.444;2022-10-22T04:10:24;13.50;99.90
61092;DHT22;46975;51.898;11.444;2022-10-22T04:12:50;13.50;99.90
61092;DHT22;46975;51.898;11.444;2022-10-22T04:15:16;13.50;99.90
61092;DHT22;46975;51.898;11.444;2022-10-22T04:17:42;13.40;99.90
61092;DHT22;46975;51.898;11.444;2022-10-22T04:20:08;13.40;99.90
61092;DHT22;46975;51.898;11.444;2022-10-22T04:22:35;13.30;99.90
61092;DHT22;46975;51.898;11.444;2022-10-22T04:25:02;13.20;99.90
61092;DHT22;46975;51.898;11.444;2022-10-22T04:27:32;13.20;99.90
61092;DHT22;46975;51.898;11.444;2022-10-22T04:29:58;13.10;99.90
61092;DHT22;46975;51.898;11.444;2022-10-22T04:32:27;13.00;99.90
61092;DHT22;46975;51.898;11.444;2022-10-22T04:34:53;13.00;99.90
61092;DHT22;46975;51.898;11.444;2022-10-22T04:37:19;12.90;99.90
61092;DHT22;46975;51.898;11.444;2022-10-22T04:39:45;12.90;99.90
61092;DHT22;46975;51.898;11.444;2022-10-22T04:42:10;12.90;99.90
61092;DHT22;46975;51.898;11.444;2022-10-22T04:44:37;12.80;99.90
61092;DHT22;46975;51.898;11.444;2022-10-22T04:47:03;12.70;99.90
61092;DHT22;46975;51.898;11.444;2022-10-22T04:49:28;12.70;99.90
61092;DHT22;46975;51.898;11.444;2022-10-22T04:51:54;12.60;99.90
61092;DHT22;46975;51.898;11.444;2022-10-22T04:54:19;12.60;99.90
61092;DHT22;46975;51.898;11.444;2022-10-22T04:56:45;12.70;99.90
61092;DHT22;46975;51.898;11.444;2022-10-22T04:59:11;12.70;99.90
61092;DHT22;46975;51.898;11.444;2022-10-22T05:01:42;12.80;99.90
61092;DHT22;46975;51.898;11.444;2022-10-22T05:04:14;12.80;99.90
61092;DHT22;46975;51.898;11.444;2022-10-22T05:06:40;12.90;99.90
61092;DHT22;46975;51.898;11.444;2022-10-22T05:09:11;12.90;99.90
61092;DHT22;46975;51.898;11.444;2022-10-22T05:11:38;12.90;99.90
61092;DHT22;46975;51.898;11.444;2022-10-22T05:14:06;12.80;99.90
61092;DHT22;46975;51.898;11.444;2022-10-22T05:16:32;12.70;99.90
61092;DHT22;46975;51.898;11.444;2022-10-22T05:18:59;12.60;99.90
61092;DHT22;46975;51.898;11.444;2022-10-22T05:21:26;12.50;99.90
61092;DHT22;46975;51.898;11.444;2022-10-22T05:23:53;12.50;99.90
61092;DHT22;46975;51.898;11.444;2022-10-22T05:26:20;12.60;99.90
61092;DHT22;46975;51.898;11.444;2022-10-22T05:28:47;12.60;99.90
61092;DHT22;46975;51.898;11.444;2022-10-22T05:31:13;12.60;99.90
61092;DHT22;46975;51.898;11.444;2022-10-22T05:33:40;12.60;99.90
61092;DHT22;46975;51.898;11.444;2022-10-22T05:36:08;12.50;99.90
61092;DHT22;46975;51.898;11.444;2022-10-22T05:38:34;12.60;99.90
61092;DHT22;46975;51.898;11.444;2022-10-22T05:41:01;12.60;99.90
61092;DHT22;46975;51.898;11.444;2022-10-22T05:43:27;12.60;99.90
61092;DHT22;46975;51.898;11.444;2022-10-22T05:45:53;12.60;99.90
61092;DHT22;46975;51.898;11.444;2022-10-22T05:48:19;12.60;99.90
61092;DHT22;46975;51.898;11.444;2022-10-22T05:50:45;12.60;99.90
61092;DHT22;46975;51.898;11.444;2022-10-22T05:53:15;12.50;99.90
61092;DHT22;46975;51.898;11.444;2022-10-22T05:55:41;12.50;99.90
61092;DHT22;46975;51.898;11.444;2022-10-22T05:58:08;12.50;99.90
61092;DHT22;46975;51.898;11.444;2022-10-22T06:00:33;12.50;99.90
61092;DHT22;46975;51.898;11.444;2022-10-22T06:02:59;12.50;99.90
61092;DHT22;46975;51.898;11.444;2022-10-22T06:05:25;12.50;99.90
61092;DHT22;46975;51.898;11.444;2022-10-22T06:07:51;12.50;99.90
61092;DHT22;46975;51.898;11.444;2022-10-22T06:10:18;12.50;99.90
61092;DHT22;46975;51.898;11.444;2022-10-22T06:12:48;12.60;99.90
61092;DHT22;46975;51.898;11.444;2022-10-22T06:15:16;12.60;99.90
61092;DHT22;46975;51.898;11.444;2022-10-22T06:17:45;12.60;99.90
61092;DHT22;46975;51.898;11.444;2022-10-22T06:20:12;12.60;99.90
61092;DHT22;46975;51.898;11.444;2022-10-22T06:22:38;12.70;99.90
61092;DHT22;46975;51.898;11.444;2022-10-22T06:25:04;12.80;99.90
61092;DHT22;46975;51.898;11.444;2022-10-22T06:27:31;12.90;99.90
61092;DHT22;46975;51.898;11.444;2022-10-22T06:29:56;12.90;99.90
61092;DHT22;46975;51.898;11.444;2022-10-22T06:32:22;13.00;99.90
61092;DHT22;46975;51.898;11.444;2022-10-22T06:34:48;13.00;99.90
61092;DHT22;46975;51.898;11.444;2022-10-22T06:37:15;13.10;99.90
61092;DHT22;46975;51.898;11.444;2022-10-22T06:39:40;13.10;99.90
61092;DHT22;46975;51.898;11.444;2022-10-22T06:42:06;13.30;99.90
61092;DHT22;46975;51.898;11.444;2022-10-22T06:44:32;13.20;99.90
61092;DHT22;46975;51.898;11.444;2022-10-22T06:46:57;13.30;99.90
61092;DHT22;46975;51.898;11.444;2022-10-22T06:49:23;13.40;99.90
61092;DHT22;46975;51.898;11.444;2022-10-22T06:51:50;13.70;99.90
61092;DHT22;46975;51.898;11.444;2022-10-22T06:54:16;13.90;99.90
61092;DHT22;46975;51.898;11.444;2022-10-22T06:56:41;14.10;99.90
61092;DHT22;46975;51.898;11.444;2022-10-22T06:59:07;14.30;99.90
61092;DHT22;46975;51.898;11.444;2022-10-22T07:01:34;14.50;99.90
61092;DHT22;46975;51.898;11.444;2022-10-22T07:04:00;14.60;99.90
61092;DHT22;46975;51.898;11.444;2022-10-22T07:06:27;14.60;99.90
61092;DHT22;46975;51.898;11.444;2022-10-22T07:08:54;14.70;99.90
61092;DHT22;46975;51.898;11.444;2022-10-22T07:11:22;14.80;99.90
61092;DHT22;46975;51.898;11.444;2022-10-22T07:13:48;14.80;99.90
61092;DHT22;46975;51.898;11.444;2022-10-22T07:16:15;14.80;99.90
61092;DHT22;46975;51.898;11.444;2022-10-22T07:18:42;14.80;99.90
61092;DHT22;46975;51.898;11.444;2022-10-22T07:21:09;14.90;99.90
61092;DHT22;46975;51.898;11.444;2022-10-22T07:23:35;14.90;99.90
61092;DHT22;46975;51.898;11.444;2022-10-22T07:26:01;15.00;99.90
61092;DHT22;46975;51.898;11.444;2022-10-22T07:28:27;15.00;99.90
61092;DHT22;46975;51.898;11.444;2022-10-22T07:30:53;15.10;99.90
61092;DHT22;46975;51.898;11.444;2022-10-22T07:33:19;15.10;99.90
61092;DHT22;46975;51.898;11.444;2022-10-22T07:35:45;15.20;99.90
61092;DHT22;46975;51.898;11.444;2022-10-22T07:38:11;15.30;99.90
61092;DHT22;46975;51.898;11.444;2022-10-22T07:40:37;15.30;99.90
61092;DHT22;46975;51.898;11.444;2022-10-22T07:43:03;15.40;99.90
61092;DHT22;46975;51.898;11.444;2022-10-22T07:45:28;15.40;99.90
61092;DHT22;46975;51.898;11.444;2022-10-22T07:47:54;15.40;99.90
61092;DHT22;46975;51.898;11.444;2022-10-22T07:50:20;15.50;99.90
61092;DHT22;46975;51.898;11.444;2022-10-22T07:52:46;15.50;99.90
61092;DHT22;46975;51.898;11.444;2022-10-22T07:55:11;15.50;99.90
61092;DHT22;46975;51.898;11.444;2022-10-22T07:57:41;15.60;99.90
61092;DHT22;46975;51.898;11.444;2022-10-22T08:00:07;15.60;99.90
61092;DHT22;46975;51.898;11.444;2022-10-22T08:02:33;15.60;99.90
61092;DHT22;46975;51.898;11.444;2022-10-22T08:04:59;15.60;99.90
61092;DHT22;46975;51.898;11.444;2022-10-22T08:07:25;15.60;99.90
61092;DHT22;46975;51.898;11.444;2022-10-22T08:09:50;15.60;99.90
61092;DHT22;46975;51.898;11.444;2022-10-22T08:12:16;15.60;99.90
61092;DHT22;46975;51.898;11.444;2022-10-22T08:14:42;15.60;99.90
61092;DHT22;46975;51.898;11.444;2022-10-22T08:17:07;15.60;99.90
61092;DHT22;46975;51.898;11.444;2022-10-22T08:19:33;15.60;99.90
61092;DHT22;46975;51.898;11.444;2022-10-22T08:22:00;15.60;99.90
61092;DHT22;46975;51.898;11.444;2022-10-22T08:24:26;15.70;99.90
61092;DHT22;46975;51.898;11.444;2022-10-22T08:26:52;15.70;99.90
61092;DHT22;46975;51.898;11.444;2022-10-22T08:29:23;15.70;99.90
61092;DHT22;46975;51.898;11.444;2022-10-22T08:31:50;15.70;99.90
61092;DHT22;46975;51.898;11.444;2022-10-22T08:34:16;15.70;99.90
61092;DHT22;46975;51.898;11.444;2022-10-22T08:36:41;15.80;99.90
61092;DHT22;46975;51.898;11.444;2022-10-22T08:39:07;15.70;99.90
61092;DHT22;46975;51.898;11.444;2022-10-22T08:49:47;15.60;99.90
61092;DHT22;46975;51.898;11.444;2022-10-22T08:52:15;15.60;99.90
61092;DHT22;46975;51.898;11.444;2022-10-22T09:00:08;15.90;99.90
61092;DHT22;46975;51.898;11.444;2022-10-22T09:02:53;16.10;99.90
61092;DHT22;46975;51.898;11.444;2022-10-22T09:05:49;16.30;99.90
61092;DHT22;46975;51.898;11.444;2022-10-22T09:08:20;16.40;99.90
61092;DHT22;46975;51.898;11.444;2022-10-22T09:10:54;16.60;99.90
61092;DHT22;46975;51.898;11.444;2022-10-22T09:13:22;16.70;99.90
61092;DHT22;46975;51.898;11.444;2022-10-22T09:15:54;16.70;99.90
61092;DHT22;46975;51.898;11.444;2022-10-22T09:18:23;16.90;99.90
61092;DHT22;46975;51.898;11.444;2022-10-22T09:20:58;17.00;99.90
61092;DHT22;46975;51.898;11.444;2022-10-22T09:26:27;17.10;99.90
61092;DHT22;46975;51.898;11.444;2022-10-22T09:28:53;17.20;99.90
61092;DHT22;46975;51.898;11.444;2022-10-22T09:31:19;17.20;99.90
61092;DHT22;46975;51.898;11.444;2022-10-22T09:33:46;17.20;99.90
61092;DHT22;46975;51.898;11.444;2022-10-22T09:36:17;17.20;99.90
61092;DHT22;46975;51.898;11.444;2022-10-22T09:38:49;17.30;99.90
61092;DHT22;46975;51.898;11.444;2022-10-22T09:41:16;17.40;99.90
61092;DHT22;46975;51.898;11.444;2022-10-22T09:43:46;17.40;99.90
61092;DHT22;46975;51.898;11.444;2022-10-22T09:46:17;17.40;99.90
61092;DHT22;46975;51.898;11.444;2022-10-22T09:49:08;17.40;99.90
61092;DHT22;46975;51.898;11.444;2022-10-22T09:51:40;17.50;99.90
61092;DHT22;46975;51.898;11.444;2022-10-22T09:57:14;17.60;99.90
61092;DHT22;46975;51.898;11.444;2022-10-22T09:59:43;17.70;99.90
61092;DHT22;46975;51.898;11.444;2022-10-22T10:02:20;17.70;99.90
61092;DHT22;46975;51.898;11.444;2022-10-22T10:04:56;17.90;99.90
61092;DHT22;46975;51.898;11.444;2022-10-22T10:07:29;17.90;99.90
61092;DHT22;46975;51.898;11.444;2022-10-22T10:09:56;17.90;99.90
61092;DHT22;46975;51.898;11.444;2022-10-22T10:12:42;17.90;99.90
61092;DHT22;46975;51.898;11.444;2022-10-22T10:15:19;18.10;99.90
61092;DHT22;46975;51.898;11.444;2022-10-22T10:26:04;18.20;99.90
61092;DHT22;46975;51.898;11.444;2022-10-22T10:36:33;18.40;99.90
61092;DHT22;46975;51.898;11.444;2022-10-22T10:39:09;18.60;99.90
61092;DHT22;46975;51.898;11.444;2022-10-22T10:42:00;18.60;99.90
61092;DHT22;46975;51.898;11.444;2022-10-22T10:56:27;18.70;99.90
61092;DHT22;46975;51.898;11.444;2022-10-22T11:01:49;18.80;99.90
61092;DHT22;46975;51.898;11.444;2022-10-22T11:07:19;19.00;99.90
61092;DHT22;46975;51.898;11.444;2022-10-22T11:09:55;19.10;99.90
61092;DHT22;46975;51.898;11.444;2022-10-22T11:12:34;19.10;99.90
61092;DHT22;46975;51.898;11.444;2022-10-22T11:15:02;19.10;99.90
61092;DHT22;46975;51.898;11.444;2022-10-22T11:17:37;19.20;99.90
61092;DHT22;46975;51.898;11.444;2022-10-22T11:20:19;19.10;99.90
61092;DHT22;46975;51.898;11.444;2022-10-22T11:22:59;19.00;99.90
61092;DHT22;46975;51.898;11.444;2022-10-22T11:25:30;19.20;99.90
61092;DHT22;46975;51.898;11.444;2022-10-22T11:28:24;19.40;99.90
61092;DHT22;46975;51.898;11.444;2022-10-22T11:30:57;19.30;99.90
61092;DHT22;46975;51.898;11.444;2022-10-22T11:33:27;19.20;99.90
61092;DHT22;46975;51.898;11.444;2022-10-22T11:36:01;19.40;99.90
61092;DHT22;46975;51.898;11.444;2022-10-22T11:38:28;19.30;99.90
61092;DHT22;46975;51.898;11.444;2022-10-22T11:41:05;19.30;99.90
61092;DHT22;46975;51.898;11.444;2022-10-22T11:43:34;19.20;99.90
61092;DHT22;46975;51.898;11.444;2022-10-22T11:48:41;19.30;99.90
61092;DHT22;46975;51.898;11.444;2022-10-22T11:51:28;19.40;99.90
61092;DHT22;46975;51.898;11.444;2022-10-22T11:53:55;19.50;99.90
61092;DHT22;46975;51.898;11.444;2022-10-22T11:56:24;19.40;99.90
61092;DHT22;46975;51.898;11.444;2022-10-22T11:58:50;19.40;99.90
61092;DHT22;46975;51.898;11.444;2022-10-22T12:01:23;19.50;99.90
61092;DHT22;46975;51.898;11.444;2022-10-22T12:06:59;19.70;99.90
61092;DHT22;46975;51.898;11.444;2022-10-22T12:09:27;19.80;99.90
61092;DHT22;46975;51.898;11.444;2022-10-22T12:12:10;19.70;99.90
61092;DHT22;46975;51.898;11.444;2022-10-22T12:14:54;19.70;99.90
61092;DHT22;46975;51.898;11.444;2022-10-22T12:17:21;19.60;99.90
61092;DHT22;46975;51.898;11.444;2022-10-22T12:20:10;19.60;99.90
61092;DHT22;46975;51.898;11.444;2022-10-22T12:22:37;19.60;99.90
61092;DHT22;46975;51.898;11.444;2022-10-22T12:25:24;19.60;99.90
61092;DHT22;46975;51.898;11.444;2022-10-22T12:27:56;19.60;99.90
61092;DHT22;46975;51.898;11.444;2022-10-22T12:30:23;19.60;99.90
61092;DHT22;46975;51.898;11.444;2022-10-22T12:32:54;19.60;99.90
61092;DHT22;46975;51.898;11.444;2022-10-22T12:35:24;19.60;99.90
61092;DHT22;46975;51.898;11.444;2022-10-22T12:37:55;19.70;99.90
61092;DHT22;46975;51.898;11.444;2022-10-22T12:40:30;19.80;99.90
61092;DHT22;46975;51.898;11.444;2022-10-22T12:43:06;19.70;99.90
61092;DHT22;46975;51.898;11.444;2022-10-22T12:45:33;19.80;99.90
61092;DHT22;46975;51.898;11.444;2022-10-22T12:48:24;19.80;99.90
61092;DHT22;46975;51.898;11.444;2022-10-22T12:50:54;19.90;99.90
61092;DHT22;46975;51.898;11.444;2022-10-22T12:53:36;19.90;99.90
61092;DHT22;46975;51.898;11.444;2022-10-22T12:56:06;19.90;99.90
61092;DHT22;46975;51.898;11.444;2022-10-22T12:58:38;19.90;99.90
61092;DHT22;46975;51.898;11.444;2022-10-22T13:01:05;19.90;99.90
61092;DHT22;46975;51.898;11.444;2022-10-22T13:03:38;19.90;99.90
61092;DHT22;46975;51.898;11.444;2022-10-22T13:06:23;19.90;99.90
61092;DHT22;46975;51.898;11.444;2022-10-22T13:11:21;19.80;99.90
61092;DHT22;46975;51.898;11.444;2022-10-22T13:13:46;19.60;99.90
61092;DHT22;46975;51.898;11.444;2022-10-22T13:16:19;19.50;99.90
61092;DHT22;46975;51.898;11.444;2022-10-22T13:18:46;19.60;99.90
61092;DHT22;46975;51.898;11.444;2022-10-22T13:24:23;19.90;99.90
61092;DHT22;46975;51.898;11.444;2022-10-22T13:26:51;19.90;99.90
61092;DHT22;46975;51.898;11.444;2022-10-22T13:29:19;19.90;99.90
61092;DHT22;46975;51.898;11.444;2022-10-22T13:31:48;19.90;99.90
61092;DHT22;46975;51.898;11.444;2022-10-22T13:34:17;19.90;99.90
61092;DHT22;46975;51.898;11.444;2022-10-22T13:36:44;19.90;99.90
61092;DHT22;46975;51.898;11.444;2022-10-22T13:39:22;19.80;99.90
61092;DHT22;46975;51.898;11.444;2022-10-22T13:41:49;19.80;99.90
61092;DHT22;46975;51.898;11.444;2022-10-22T13:44:18;19.80;99.90
61092;DHT22;46975;51.898;11.444;2022-10-22T13:46:45;19.80;99.90
61092;DHT22;46975;51.898;11.444;2022-10-22T13:49:16;19.80;99.90
61092;DHT22;46975;51.898;11.444;2022-10-22T13:51:42;19.80;99.90
61092;DHT22;46975;51.898;11.444;2022-10-22T13:54:15;19.80;99.90
61092;DHT22;46975;51.898;11.444;2022-10-22T13:56:42;19.80;99.90
61092;DHT22;46975;51.898;11.444;2022-10-22T13:59:08;19.80;99.90
61092;DHT22;46975;51.898;11.444;2022-10-22T14:01:35;19.80;99.90
61092;DHT22;46975;51.898;11.444;2022-10-22T14:04:04;19.70;99.90
61092;DHT22;46975;51.898;11.444;2022-10-22T14:06:31;19.70;99.90
61092;DHT22;46975;51.898;11.444;2022-10-22T14:09:01;19.70;99.90
61092;DHT22;46975;51.898;11.444;2022-10-22T14:11:27;19.70;99.90
61092;DHT22;46975;51.898;11.444;2022-10-22T14:13:55;19.60;99.90
61092;DHT22;46975;51.898;11.444;2022-10-22T14:16:26;19.60;99.90
61092;DHT22;46975;51.898;11.444;2022-10-22T14:18:53;19.60;99.90
61092;DHT22;46975;51.898;11.444;2022-10-22T14:21:20;19.50;99.90
61092;DHT22;46975;51.898;11.444;2022-10-22T14:23:47;19.40;99.90
61092;DHT22;46975;51.898;11.444;2022-10-22T14:26:30;19.20;99.90
61092;DHT22;46975;51.898;11.444;2022-10-22T14:28:58;19.10;99.90
61092;DHT22;46975;51.898;11.444;2022-10-22T14:31:24;18.90;99.90
61092;DHT22;46975;51.898;11.444;2022-10-22T14:33:50;18.90;99.90
61092;DHT22;46975;51.898;11.444;2022-10-22T14:36:17;18.90;99.90
61092;DHT22;46975;51.898;11.444;2022-10-22T14:38:44;18.80;99.90
61092;DHT22;46975;51.898;11.444;2022-10-22T14:41:21;18.80;99.90
61092;DHT22;46975;51.898;11.444;2022-10-22T14:43:48;18.70;99.90
61092;DHT22;46975;51.898;11.444;2022-10-22T14:46:16;18.60;99.90
61092;DHT22;46975;51.898;11.444;2022-10-22T14:48:42;18.60;99.90
61092;DHT22;46975;51.898;11.444;2022-10-22T14:51:16;18.50;99.90
61092;DHT22;46975;51.898;11.444;2022-10-22T14:53:42;18.50;99.90
61092;DHT22;46975;51.898;11.444;2022-10-22T14:56:11;18.50;99.90
61092;DHT22;46975;51.898;11.444;2022-10-22T14:58:36;18.30;99.90
61092;DHT22;46975;51.898;11.444;2022-10-22T15:01:02;18.30;99.90
61092;DHT22;46975;51.898;11.444;2022-10-22T15:03:28;18.30;99.90
61092;DHT22;46975;51.898;11.444;2022-10-22T15:05:55;18.20;99.90
61092;DHT22;46975;51.898;11.444;2022-10-22T15:08:21;18.10;99.90
61092;DHT22;46975;51.898;11.444;2022-10-22T15:11:04;18.00;99.90
61092;DHT22;46975;51.898;11.444;2022-10-22T15:13:30;18.00;99.90
61092;DHT22;46975;51.898;11.444;2022-10-22T15:15:57;17.80;99.90
61092;DHT22;46975;51.898;11.444;2022-10-22T15:18:24;17.70;99.90
61092;DHT22;46975;51.898;11.444;2022-10-22T15:20:55;17.70;99.90
61092;DHT22;46975;51.898;11.444;2022-10-22T15:23:20;17.70;99.90
61092;DHT22;46975;51.898;11.444;2022-10-22T15:25:46;17.70;99.90
61092;DHT22;46975;51.898;11.444;2022-10-22T15:28:11;17.60;99.90
61092;DHT22;46975;51.898;11.444;2022-10-22T15:30:37;17.50;99.90
61092;DHT22;46975;51.898;11.444;2022-10-22T15:33:03;17.50;99.90
61092;DHT22;46975;51.898;11.444;2022-10-22T15:35:28;17.40;99.90
61092;DHT22;46975;51.898;11.444;2022-10-22T15:37:54;17.30;99.90
61092;DHT22;46975;51.898;11.444;2022-10-22T15:40:20;17.30;99.90
61092;DHT22;46975;51.898;11.444;2022-10-22T15:42:45;17.20;99.90
61092;DHT22;46975;51.898;11.444;2022-10-22T15:45:11;17.10;99.90
61092;DHT22;46975;51.898;11.444;2022-10-22T15:47:37;17.10;99.90
61092;DHT22;46975;51.898;11.444;2022-10-22T15:50:03;17.00;99.90
61092;DHT22;46975;51.898;11.444;2022-10-22T15:52:30;17.00;99.90
61092;DHT22;46975;51.898;11.444;2022-10-22T15:54:56;16.90;99.90
61092;DHT22;46975;51.898;11.444;2022-10-22T15:57:21;16.90;99.90
61092;DHT22;46975;51.898;11.444;2022-10-22T15:59:47;16.90;99.90
61092;DHT22;46975;51.898;11.444;2022-10-22T16:02:14;16.70;99.90
61092;DHT22;46975;51.898;11.444;2022-10-22T16:04:40;16.70;99.90
61092;DHT22;46975;51.898;11.444;2022-10-22T16:07:06;16.80;99.90
61092;DHT22;46975;51.898;11.444;2022-10-22T16:09:32;16.80;99.90
61092;DHT22;46975;51.898;11.444;2022-10-22T16:11:57;16.80;99.90
61092;DHT22;46975;51.898;11.444;2022-10-22T16:14:23;16.80;99.90
61092;DHT22;46975;51.898;11.444;2022-10-22T16:16:53;16.70;99.90
61092;DHT22;46975;51.898;11.444;2022-10-22T16:19:21;16.60;99.90
61092;DHT22;46975;51.898;11.444;2022-10-22T16:21:52;16.60;99.90
61092;DHT22;46975;51.898;11.444;2022-10-22T16:24:19;16.50;99.90
61092;DHT22;46975;51.898;11.444;2022-10-22T16:26:45;16.40;99.90
61092;DHT22;46975;51.898;11.444;2022-10-22T16:29:11;16.30;99.90
61092;DHT22;46975;51.898;11.444;2022-10-22T16:31:38;16.30;99.90
61092;DHT22;46975;51.898;11.444;2022-10-22T16:34:05;16.20;99.90
61092;DHT22;46975;51.898;11.444;2022-10-22T16:36:30;16.10;99.90
61092;DHT22;46975;51.898;11.444;2022-10-22T16:38:56;16.20;99.90
61092;DHT22;46975;51.898;11.444;2022-10-22T16:41:23;16.30;99.90
61092;DHT22;46975;51.898;11.444;2022-10-22T16:43:53;16.30;99.90
61092;DHT22;46975;51.898;11.444;2022-10-22T16:46:20;16.30;99.90
61092;DHT22;46975;51.898;11.444;2022-10-22T16:48:51;16.40;99.90
61092;DHT22;46975;51.898;11.444;2022-10-22T16:51:19;16.50;99.90
61092;DHT22;46975;51.898;11.444;2022-10-22T16:53:45;16.60;99.90
61092;DHT22;46975;51.898;11.444;2022-10-22T16:56:13;16.70;99.90